createdAt,value
2022-08-01T00:00:15.047Z,2.15
2022-08-01T00:02:43.517Z,2.50
2022-08-01T00:05:13.462Z,2.20
2022-08-01T00:07:42.522Z,1.98
2022-08-01T00:10:15.139Z,2.30
2022-08-01T00:12:44.395Z,2.10
2022-08-01T00:15:15.756Z,1.95
2022-08-01T00:17:46.702Z,2.03
2022-08-01T00:20:17.667Z,1.83
2022-08-01T00:22:46.551Z,2.17
2022-08-01T00:25:16.324Z,1.77
2022-08-01T00:27:45.826Z,2.17
2022-08-01T00:30:15.901Z,1.95
2022-08-01T00:32:45.096Z,2.10
2022-08-01T00:35:14.359Z,2.45
2022-08-01T00:37:43.602Z,2.00
2022-08-01T00:40:12.410Z,1.92
2022-08-01T00:42:43.995Z,1.83
2022-08-01T00:45:13.445Z,2.08
2022-08-01T00:47:42.835Z,1.70
2022-08-01T00:50:12.958Z,1.80
2022-08-01T00:52:43.232Z,1.98
2022-08-01T00:55:20.641Z,1.90
2022-08-01T00:58:04.611Z,2.38
2022-08-01T01:00:53.258Z,1.88
2022-08-01T01:03:58.002Z,2.00
2022-08-01T01:06:29.336Z,1.98
2022-08-01T01:09:17.517Z,1.88
2022-08-01T01:11:53.786Z,2.22
2022-08-01T01:14:33.241Z,1.90
2022-08-01T01:17:04.640Z,1.95
2022-08-01T01:19:39.079Z,2.13
2022-08-01T01:22:23.833Z,2.13
2022-08-01T01:25:07.911Z,2.17
2022-08-01T01:27:47.367Z,2.38
2022-08-01T01:30:18.435Z,2.40
2022-08-01T01:32:50.710Z,2.33
2022-08-01T01:35:25.237Z,2.40
2022-08-01T01:38:00.110Z,2.33
2022-08-01T01:40:30.558Z,2.08
2022-08-01T01:42:59.179Z,2.60
2022-08-01T01:45:30.926Z,2.30
2022-08-01T01:48:01.134Z,2.00
2022-08-01T01:50:31.224Z,2.00
2022-08-01T01:53:03.422Z,2.08
2022-08-01T01:55:34.127Z,2.10
2022-08-01T01:58:18.379Z,2.22
2022-08-01T02:00:50.582Z,2.42
2022-08-01T02:03:21.149Z,1.90
2022-08-01T02:05:50.581Z,2.30
2022-08-01T02:08:20.670Z,2.40
2022-08-01T02:11:04.080Z,2.60
2022-08-01T02:13:35.178Z,2.38
2022-08-01T02:16:05.883Z,1.98
2022-08-01T02:18:35.636Z,2.35
2022-08-01T02:21:07.421Z,2.30
2022-08-01T02:23:39.377Z,2.22
2022-08-01T02:26:13.566Z,2.60
2022-08-01T02:28:49.600Z,2.00
2022-08-01T02:31:23.383Z,2.03
2022-08-01T02:34:01.317Z,2.10
2022-08-01T02:36:34.824Z,2.20
2022-08-01T02:39:08.722Z,2.08
2022-08-01T02:41:42.754Z,1.95
2022-08-01T02:44:19.676Z,1.80
2022-08-01T02:46:53.570Z,1.90
2022-08-01T02:49:24.266Z,2.25
2022-08-01T02:51:54.027Z,1.98
2022-08-01T02:54:25.515Z,2.30
2022-08-01T02:56:57.412Z,2.20
2022-08-01T02:59:30.758Z,2.10
2022-08-01T03:02:03.976Z,2.38
2022-08-01T03:04:36.195Z,2.20
2022-08-01T03:07:10.570Z,2.10
2022-08-01T03:09:42.654Z,2.28
2022-08-01T03:12:15.719Z,2.00
2022-08-01T03:14:45.120Z,2.53
2022-08-01T03:17:18.596Z,2.25
2022-08-01T03:19:48.666Z,1.90
2022-08-01T03:22:18.602Z,2.00
2022-08-01T03:24:52.140Z,2.00
2022-08-01T03:27:23.594Z,2.03
2022-08-01T03:29:54.184Z,2.05
2022-08-01T03:32:25.502Z,2.05
2022-08-01T03:34:54.702Z,1.92
2022-08-01T03:37:27.495Z,1.95
2022-08-01T03:40:00.900Z,1.90
2022-08-01T03:42:33.994Z,2.20
2022-08-01T03:45:13.355Z,2.10
2022-08-01T03:47:46.134Z,2.20
2022-08-01T03:50:17.714Z,2.20
2022-08-01T03:52:48.586Z,2.35
2022-08-01T03:55:19.300Z,1.90
2022-08-01T03:57:49.149Z,2.13
2022-08-01T04:00:19.758Z,2.40
2022-08-01T04:02:50.413Z,2.00
2022-08-01T04:05:20.043Z,2.60
2022-08-01T04:07:51.519Z,2.10
2022-08-01T04:10:20.558Z,2.25
2022-08-01T04:12:49.024Z,2.05
2022-08-01T04:15:17.882Z,1.92
2022-08-01T04:17:46.293Z,1.95
2022-08-01T04:20:17.181Z,1.90
2022-08-01T04:22:45.844Z,1.98
2022-08-01T04:25:19.834Z,2.00
2022-08-01T04:27:52.430Z,2.08
2022-08-01T04:30:24.964Z,2.08
2022-08-01T04:32:56.508Z,2.10
2022-08-01T04:36:02.294Z,2.00
2022-08-01T04:38:22.050Z,2.15
2022-08-01T04:40:54.991Z,2.13
2022-08-01T04:43:24.393Z,2.40
2022-08-01T04:45:54.285Z,2.17
2022-08-01T04:48:25.782Z,2.08
2022-08-01T04:50:56.543Z,2.38
2022-08-01T04:53:26.989Z,2.00
2022-08-01T04:55:55.813Z,2.53
2022-08-01T04:58:24.200Z,1.88
2022-08-01T05:00:53.026Z,2.13
2022-08-01T05:03:22.177Z,1.92
2022-08-01T05:05:50.682Z,2.03
2022-08-01T05:08:21.897Z,2.35
2022-08-01T05:10:50.365Z,2.03
2022-08-01T05:13:19.432Z,2.20
2022-08-01T05:15:48.017Z,2.20
2022-08-01T05:18:17.753Z,1.95
2022-08-01T05:20:56.352Z,2.47
2022-08-01T05:23:42.060Z,2.05
2022-08-01T05:26:14.547Z,1.83
2022-08-01T05:28:44.095Z,2.00
2022-08-01T05:31:12.891Z,2.25
2022-08-01T05:33:41.912Z,2.25
2022-08-01T05:36:10.711Z,2.15
2022-08-01T05:38:41.287Z,2.00
2022-08-01T05:41:09.714Z,1.85
2022-08-01T05:43:38.838Z,2.00
2022-08-01T05:46:07.228Z,2.20
2022-08-01T05:48:36.349Z,2.17
2022-08-01T05:51:04.978Z,2.20
2022-08-01T05:53:35.656Z,2.35
2022-08-01T05:56:05.904Z,1.90
2022-08-01T05:58:34.806Z,2.00
2022-08-01T06:01:03.229Z,2.05
2022-08-01T06:03:34.591Z,2.45
2022-08-01T06:06:03.214Z,2.10
2022-08-01T06:08:32.527Z,2.30
2022-08-01T06:11:01.384Z,2.28
2022-08-01T06:13:31.168Z,2.10
2022-08-01T06:15:59.903Z,2.30
2022-08-01T06:18:28.322Z,2.35
2022-08-01T06:20:57.969Z,2.20
2022-08-01T06:23:32.575Z,2.00
2022-08-01T06:26:02.219Z,2.17
2022-08-01T06:28:31.970Z,2.00
2022-08-01T06:31:01.388Z,2.00
2022-08-01T06:33:30.312Z,1.90
2022-08-01T06:35:59.391Z,1.90
2022-08-01T06:38:27.886Z,2.10
2022-08-01T06:40:56.630Z,2.03
2022-08-01T06:43:25.228Z,1.80
2022-08-01T06:45:55.305Z,1.73
2022-08-01T06:48:23.831Z,1.63
2022-08-01T06:51:09.233Z,1.80
2022-08-01T06:53:38.943Z,1.45
2022-08-01T06:56:10.005Z,1.65
2022-08-01T06:58:38.536Z,1.80
2022-08-01T07:01:09.090Z,1.83
2022-08-01T07:03:53.575Z,1.80
2022-08-01T07:06:24.711Z,1.90
2022-08-01T07:08:53.620Z,1.88
2022-08-01T07:11:24.009Z,2.35
2022-08-01T07:13:52.875Z,2.00
2022-08-01T07:16:23.115Z,2.10
2022-08-01T07:18:52.662Z,2.50
2022-08-01T07:21:39.966Z,1.75
2022-08-01T07:24:13.638Z,2.10
2022-08-01T07:26:52.935Z,2.17
2022-08-01T07:29:25.019Z,2.25
2022-08-01T07:31:55.457Z,2.50
2022-08-01T07:34:25.360Z,2.17
2022-08-01T07:36:54.534Z,2.28
2022-08-01T07:39:24.069Z,1.80
2022-08-01T07:42:05.825Z,2.25
2022-08-01T07:44:37.738Z,2.42
2022-08-01T07:47:08.025Z,2.08
2022-08-01T07:49:40.453Z,2.30
2022-08-01T07:52:10.012Z,2.15
2022-08-01T07:54:38.849Z,1.90
2022-08-01T07:57:08.103Z,2.10
2022-08-01T07:59:37.278Z,2.25
2022-08-01T08:02:07.722Z,2.30
2022-08-01T08:04:36.319Z,2.10
2022-08-01T08:07:05.453Z,2.20
2022-08-01T08:09:37.288Z,2.25
2022-08-01T08:12:08.874Z,2.58
2022-08-01T08:14:38.500Z,2.03
2022-08-01T08:17:08.616Z,2.20
2022-08-01T08:19:39.716Z,2.28
2022-08-01T08:22:09.942Z,2.30
2022-08-01T08:24:46.415Z,2.30
2022-08-01T08:27:16.653Z,2.13
2022-08-01T08:29:45.726Z,2.13
2022-08-01T08:32:15.637Z,2.28
2022-08-01T08:34:44.787Z,2.10
2022-08-01T08:37:13.824Z,2.83
2022-08-01T08:39:43.047Z,3.00
2022-08-01T08:42:12.920Z,2.70
2022-08-01T08:44:44.467Z,2.42
2022-08-01T08:47:19.906Z,2.63
2022-08-01T08:49:51.574Z,2.40
2022-08-01T08:52:21.720Z,2.40
2022-08-01T08:54:52.544Z,2.40
2022-08-01T08:57:22.145Z,2.83
2022-08-01T08:59:52.983Z,2.40
2022-08-01T09:02:23.060Z,2.70
2022-08-01T09:04:52.773Z,2.42
2022-08-01T09:07:21.264Z,2.95
2022-08-01T09:09:51.291Z,2.60
2022-08-01T09:12:21.650Z,2.28
2022-08-01T09:14:54.352Z,2.40
2022-08-01T09:17:25.854Z,2.53
2022-08-01T09:19:57.584Z,2.63
2022-08-01T09:22:28.301Z,2.67
2022-08-01T09:25:01.985Z,2.90
2022-08-01T09:27:32.031Z,2.17
2022-08-01T09:30:11.595Z,2.50
2022-08-01T09:32:58.529Z,2.47
2022-08-01T09:35:31.812Z,2.80
2022-08-01T09:38:15.511Z,2.78
2022-08-01T09:40:49.352Z,2.30
2022-08-01T09:43:18.374Z,2.10
2022-08-01T09:45:50.527Z,2.10
2022-08-01T09:48:27.854Z,2.28
2022-08-01T09:51:04.305Z,1.90
2022-08-01T09:53:51.216Z,2.33
2022-08-01T09:56:22.675Z,2.30
2022-08-01T09:58:58.833Z,2.20
2022-08-01T10:01:36.829Z,2.20
2022-08-01T10:04:11.673Z,2.22
2022-08-01T10:06:43.614Z,2.08
2022-08-01T10:09:13.852Z,1.80
2022-08-01T10:11:44.689Z,2.22
2022-08-01T10:14:18.395Z,1.98
2022-08-01T10:16:53.595Z,1.70
2022-08-01T10:19:28.702Z,1.73
2022-08-01T10:22:00.198Z,1.83
2022-08-01T10:24:34.978Z,1.95
2022-08-01T10:27:09.546Z,1.67
2022-08-01T10:30:05.800Z,1.83
2022-08-01T10:32:39.616Z,1.80
2022-08-01T10:35:16.070Z,1.90
2022-08-01T10:37:52.070Z,1.67
2022-08-01T10:40:31.520Z,1.60
2022-08-01T10:43:00.729Z,1.77
2022-08-01T10:45:30.360Z,1.50
2022-08-01T10:48:05.117Z,1.65
2022-08-01T10:50:41.378Z,1.58
2022-08-01T10:53:16.502Z,1.55
2022-08-01T10:55:55.289Z,1.50
2022-08-01T10:58:26.317Z,1.80
2022-08-01T11:01:21.536Z,1.85
2022-08-01T11:04:04.968Z,1.63
2022-08-01T11:06:53.535Z,1.58
2022-08-01T11:09:37.472Z,1.40
2022-08-01T11:12:13.191Z,1.50
2022-08-01T11:15:29.513Z,1.60
2022-08-01T11:18:04.558Z,1.50
2022-08-01T11:20:39.542Z,1.67
2022-08-01T11:23:23.359Z,1.50
2022-08-01T11:26:14.786Z,1.55
2022-08-01T11:29:20.656Z,1.67
2022-08-01T11:31:51.427Z,1.65
2022-08-01T11:34:20.328Z,1.60
2022-08-01T11:36:59.270Z,1.63
2022-08-01T11:39:30.016Z,1.70
2022-08-01T11:42:20.798Z,1.40
2022-08-01T11:44:52.638Z,1.60
2022-08-01T11:47:48.028Z,1.50
2022-08-01T11:50:33.571Z,1.50
2022-08-01T11:53:03.247Z,1.40
2022-08-01T11:55:36.306Z,2.53
2022-08-01T11:58:06.626Z,1.63
2022-08-01T12:00:38.229Z,1.50
2022-08-01T12:03:20.021Z,1.40
2022-08-01T12:06:01.728Z,1.70
2022-08-01T12:08:33.978Z,1.65
2022-08-01T12:11:06.944Z,1.42
2022-08-01T12:13:44.333Z,1.50
2022-08-01T12:16:14.176Z,1.40
2022-08-01T12:18:44.194Z,1.30
2022-08-01T12:21:12.913Z,2.00
2022-08-01T12:23:41.575Z,2.75
2022-08-01T12:26:28.433Z,2.97
2022-08-01T12:29:00.389Z,3.30
2022-08-01T12:31:35.895Z,1.70
2022-08-01T12:34:29.883Z,1.30
2022-08-01T12:37:00.657Z,2.15
2022-08-01T12:39:34.274Z,1.80
2022-08-01T12:42:08.995Z,1.75
2022-08-01T12:44:37.554Z,1.10
2022-08-01T12:47:08.447Z,1.33
2022-08-01T12:49:39.180Z,1.10
2022-08-01T12:52:12.854Z,1.40
2022-08-01T12:55:18.760Z,2.85
2022-08-01T12:57:51.859Z,1.95
2022-08-01T13:00:24.355Z,1.50
2022-08-01T13:03:04.316Z,1.40
2022-08-01T13:05:45.139Z,1.52
2022-08-01T13:08:14.641Z,1.52
2022-08-01T13:10:44.238Z,1.10
2022-08-01T13:13:27.896Z,1.13
2022-08-01T13:16:06.714Z,1.50
2022-08-01T13:18:38.679Z,1.10
2022-08-01T13:21:12.720Z,1.20
2022-08-01T13:24:01.235Z,1.33
2022-08-01T13:26:41.739Z,1.08
2022-08-01T13:29:13.464Z,1.20
2022-08-01T13:31:43.574Z,1.00
2022-08-01T13:34:13.219Z,1.08
2022-08-01T13:36:48.804Z,1.30
2022-08-01T13:39:36.192Z,1.20
2022-08-01T13:42:05.388Z,1.08
2022-08-01T13:44:36.081Z,1.17
2022-08-01T13:47:15.429Z,1.17
2022-08-01T13:49:47.868Z,1.13
2022-08-01T13:52:17.023Z,1.20
2022-08-01T13:54:45.421Z,1.00
2022-08-01T13:57:15.600Z,1.30
2022-08-01T13:59:45.618Z,1.15
2022-08-01T14:02:14.314Z,0.95
2022-08-01T14:04:43.151Z,1.20
2022-08-01T14:07:15.024Z,1.08
2022-08-01T14:10:18.542Z,1.50
2022-08-01T14:12:33.807Z,1.50
2022-08-01T14:15:03.586Z,1.20
2022-08-01T14:17:32.495Z,1.10
2022-08-01T14:20:07.662Z,1.17
2022-08-01T14:22:36.341Z,1.02
2022-08-01T14:25:05.645Z,1.23
2022-08-01T14:27:37.134Z,2.10
2022-08-01T14:30:09.096Z,1.30
2022-08-01T14:32:38.446Z,1.27
2022-08-01T14:35:08.452Z,1.13
2022-08-01T14:37:38.684Z,1.20
2022-08-01T14:40:11.490Z,1.10
2022-08-01T14:42:40.757Z,1.17
2022-08-01T14:45:11.798Z,1.30
2022-08-01T14:47:42.487Z,1.08
2022-08-01T14:50:13.832Z,1.30
2022-08-01T14:52:43.893Z,1.10
2022-08-01T14:55:13.613Z,1.33
2022-08-01T14:57:43.000Z,1.10
2022-08-01T15:00:14.728Z,1.20
2022-08-01T15:02:43.987Z,1.30
2022-08-01T15:05:12.575Z,1.15
2022-08-01T15:07:52.449Z,1.35
2022-08-01T15:10:22.563Z,1.27
2022-08-01T15:12:51.500Z,1.38
2022-08-01T15:15:22.027Z,1.10
2022-08-01T15:17:50.813Z,1.48
2022-08-01T15:20:19.194Z,1.40
2022-08-01T15:22:48.682Z,1.30
2022-08-01T15:25:17.480Z,1.40
2022-08-01T15:27:45.866Z,1.27
2022-08-01T15:30:14.780Z,1.33
2022-08-01T15:32:44.667Z,1.27
2022-08-01T15:35:13.154Z,1.40
2022-08-01T15:37:43.415Z,1.45
2022-08-01T15:40:35.230Z,1.40
2022-08-01T15:43:10.167Z,1.40
2022-08-01T15:45:47.780Z,1.40
2022-08-01T15:48:17.997Z,1.50
2022-08-01T15:50:47.530Z,1.30
2022-08-01T15:53:16.112Z,1.10
2022-08-01T15:55:52.343Z,1.33
2022-08-01T15:58:21.518Z,1.55
2022-08-01T16:00:50.786Z,1.10
2022-08-01T16:03:22.099Z,1.40
2022-08-01T16:05:50.999Z,1.73
2022-08-01T16:08:19.985Z,1.20
2022-08-01T16:10:48.411Z,1.50
2022-08-01T16:13:18.000Z,1.40
2022-08-01T16:15:46.414Z,1.80
2022-08-01T16:18:16.410Z,2.20
2022-08-01T16:20:46.400Z,1.95
2022-08-01T16:23:15.550Z,2.03
2022-08-01T16:25:44.930Z,2.15
2022-08-01T16:28:14.084Z,2.30
2022-08-01T16:30:50.898Z,2.50
2022-08-01T16:33:45.221Z,2.80
2022-08-01T16:36:25.128Z,2.40
2022-08-01T16:38:54.161Z,2.55
2022-08-01T16:41:22.677Z,2.65
2022-08-01T16:43:53.318Z,2.60
2022-08-01T16:46:25.472Z,2.25
2022-08-01T16:48:54.178Z,2.45
2022-08-01T16:51:25.037Z,2.10
2022-08-01T16:53:53.453Z,2.10
2022-08-01T16:56:22.821Z,2.40
2022-08-01T16:58:51.279Z,2.17
2022-08-01T17:02:00.993Z,2.30
2022-08-01T17:04:08.600Z,1.77
2022-08-01T17:06:39.092Z,2.03
2022-08-01T17:09:09.233Z,2.00
2022-08-01T17:11:38.631Z,2.40
2022-08-01T17:14:06.965Z,2.47
2022-08-01T17:16:35.715Z,2.00
2022-08-01T17:19:04.951Z,2.00
2022-08-01T17:21:34.090Z,2.47
2022-08-01T17:24:04.546Z,1.98
2022-08-01T17:26:32.925Z,2.33
2022-08-01T17:29:01.338Z,2.00
2022-08-01T17:31:30.623Z,2.13
2022-08-01T17:33:59.166Z,2.03
2022-08-01T17:36:28.563Z,2.00
2022-08-01T17:38:56.888Z,2.05
2022-08-01T17:41:27.527Z,1.70
2022-08-01T17:43:55.905Z,2.05
2022-08-01T17:46:25.117Z,2.13
2022-08-01T17:48:53.926Z,3.25
2022-08-01T17:51:23.015Z,3.75
2022-08-01T17:53:56.945Z,1.92
2022-08-01T17:56:28.419Z,1.80
2022-08-01T17:58:58.279Z,1.60
2022-08-01T18:01:27.399Z,2.40
2022-08-01T18:03:57.560Z,1.52
2022-08-01T18:06:27.360Z,1.83
2022-08-01T18:08:59.536Z,1.90
2022-08-01T18:11:37.435Z,1.60
2022-08-01T18:14:07.286Z,1.48
2022-08-01T18:16:35.767Z,1.80
2022-08-01T18:19:06.961Z,1.83
2022-08-01T18:21:37.576Z,1.55
2022-08-01T18:24:10.192Z,1.70
2022-08-01T18:26:39.869Z,2.50
2022-08-01T18:29:10.134Z,5.57
2022-08-01T18:31:40.682Z,7.38
2022-08-01T18:34:09.775Z,8.98
2022-08-01T18:36:40.371Z,6.80
2022-08-01T18:39:10.924Z,3.42
2022-08-01T18:41:41.054Z,2.72
2022-08-01T18:44:10.079Z,6.53
2022-08-01T18:46:39.991Z,4.47
2022-08-01T18:49:11.051Z,4.07
2022-08-01T18:51:44.321Z,2.35
2022-08-01T18:54:14.640Z,2.50
2022-08-01T18:56:45.554Z,1.95
2022-08-01T18:59:15.471Z,3.67
2022-08-01T19:01:43.985Z,2.58
2022-08-01T19:04:13.781Z,2.10
2022-08-01T19:06:43.285Z,2.33
2022-08-01T19:09:20.421Z,2.05
2022-08-01T19:11:50.601Z,3.60
2022-08-01T19:14:19.677Z,2.05
2022-08-01T19:16:48.546Z,1.73
2022-08-01T19:19:27.383Z,2.00
2022-08-01T19:21:57.165Z,2.05
2022-08-01T19:24:25.771Z,2.03
2022-08-01T19:26:58.313Z,2.35
2022-08-01T19:29:36.000Z,2.60
2022-08-01T19:32:07.111Z,2.13
2022-08-01T19:34:37.879Z,2.25
2022-08-01T19:37:08.881Z,2.08
2022-08-01T19:39:37.465Z,1.80
2022-08-01T19:42:09.951Z,1.98
2022-08-01T19:44:38.665Z,1.98
2022-08-01T19:47:08.012Z,2.00
2022-08-01T19:49:37.328Z,2.03
2022-08-01T19:52:07.218Z,2.00
2022-08-01T19:54:38.079Z,1.52
2022-08-01T19:57:09.983Z,2.25
2022-08-01T19:59:39.388Z,2.22
2022-08-01T20:02:09.102Z,2.15
2022-08-01T20:04:37.492Z,1.90
2022-08-01T20:07:07.074Z,2.10
2022-08-01T20:09:36.074Z,1.75
2022-08-01T20:12:05.014Z,1.88
2022-08-01T20:14:35.514Z,1.80
2022-08-01T20:17:03.875Z,1.83
2022-08-01T20:19:33.535Z,1.95
2022-08-01T20:22:06.101Z,1.50
2022-08-01T20:24:41.032Z,2.65
2022-08-01T20:27:11.828Z,1.95
2022-08-01T20:29:45.251Z,2.00
2022-08-01T20:32:14.518Z,2.10
2022-08-01T20:34:44.996Z,2.17
2022-08-01T20:37:14.237Z,2.17
2022-08-01T20:39:44.891Z,1.73
2022-08-01T20:42:14.901Z,2.10
2022-08-01T20:44:49.551Z,2.30
2022-08-01T20:47:18.219Z,2.63
2022-08-01T20:49:47.842Z,2.42
2022-08-01T20:52:16.804Z,2.67
2022-08-01T20:54:46.237Z,2.38
2022-08-01T20:57:23.432Z,2.50
2022-08-01T20:59:59.219Z,2.10
2022-08-01T21:02:42.500Z,2.50
2022-08-01T21:05:12.778Z,2.40
2022-08-01T21:07:47.288Z,2.30
2022-08-01T21:10:20.044Z,2.42
2022-08-01T21:12:50.659Z,2.10
2022-08-01T21:15:28.652Z,2.55
2022-08-01T21:18:02.291Z,2.60
2022-08-01T21:20:34.410Z,2.60
2022-08-01T21:23:21.867Z,2.90
2022-08-01T21:25:54.206Z,2.58
2022-08-01T21:28:26.256Z,2.88
2022-08-01T21:30:57.643Z,2.80
2022-08-01T21:33:28.733Z,3.15
2022-08-01T21:36:06.108Z,2.60
2022-08-01T21:38:40.419Z,3.08
2022-08-01T21:41:09.455Z,2.95
2022-08-01T21:43:39.521Z,2.28
2022-08-01T21:46:10.225Z,2.80
2022-08-01T21:48:40.187Z,2.95
2022-08-01T21:51:23.353Z,2.75
2022-08-01T21:54:10.202Z,2.58
2022-08-01T21:56:48.619Z,2.80
2022-08-01T21:59:25.182Z,2.65
2022-08-01T22:02:02.729Z,2.92
2022-08-01T22:04:39.922Z,2.50
2022-08-01T22:07:10.850Z,2.25
2022-08-01T22:09:40.648Z,2.60
2022-08-01T22:12:13.524Z,2.38
2022-08-01T22:14:48.796Z,2.95
2022-08-01T22:17:22.732Z,2.70
2022-08-01T22:19:54.314Z,2.33
2022-08-01T22:22:32.291Z,3.03
2022-08-01T22:25:14.602Z,2.65
2022-08-01T22:28:07.901Z,2.65
2022-08-01T22:30:35.623Z,2.70
2022-08-01T22:33:08.088Z,2.60
2022-08-01T22:35:47.595Z,2.72
2022-08-01T22:38:18.814Z,2.45
2022-08-01T22:40:51.020Z,2.03
2022-08-01T22:43:27.073Z,2.45
2022-08-01T22:46:08.835Z,2.53
2022-08-01T22:48:46.564Z,2.63
2022-08-01T22:51:27.334Z,2.08
2022-08-01T22:54:05.523Z,2.47
2022-08-01T22:56:38.059Z,2.20
2022-08-01T22:59:12.620Z,2.80
2022-08-01T23:01:47.571Z,2.67
2022-08-01T23:04:33.830Z,2.10
2022-08-01T23:07:06.156Z,2.28
2022-08-01T23:09:53.047Z,2.20
2022-08-01T23:12:26.212Z,2.30
2022-08-01T23:14:56.527Z,2.45
2022-08-01T23:17:27.219Z,1.90
2022-08-01T23:20:01.412Z,1.92
2022-08-01T23:22:32.047Z,1.90
2022-08-01T23:25:05.318Z,2.10
2022-08-01T23:28:03.999Z,2.20
2022-08-01T23:30:28.131Z,2.25
2022-08-01T23:32:56.817Z,2.30
2022-08-01T23:35:27.925Z,2.38
2022-08-01T23:38:01.968Z,2.50
2022-08-01T23:40:33.020Z,2.15
2022-08-01T23:43:02.355Z,2.20
2022-08-01T23:46:01.751Z,2.58
2022-08-01T23:48:21.360Z,2.20
2022-08-01T23:50:51.137Z,2.33
2022-08-01T23:53:19.946Z,2.63
2022-08-01T23:55:49.198Z,2.65
2022-08-01T23:58:18.921Z,2.42
